createdAt,value
2019-05-30T00:03:48.338Z,10.70
2019-05-30T00:08:51.934Z,10.50
2019-05-30T00:13:56.673Z,10.60
2019-05-30T00:19:00.899Z,10.40
2019-05-30T00:24:06.117Z,10.50
2019-05-30T00:29:09.797Z,10.50
2019-05-30T00:34:13.540Z,10.20
2019-05-30T00:39:17.135Z,9.90
2019-05-30T00:44:21.062Z,9.90
2019-05-30T00:49:25.293Z,9.90
2019-05-30T00:54:29.191Z,9.90
2019-05-30T00:59:32.780Z,10.10
2019-05-30T01:04:36.442Z,10.30
2019-05-30T01:09:40.495Z,10.50
2019-05-30T01:14:44.159Z,10.50
2019-05-30T01:19:47.906Z,10.50
2019-05-30T01:24:51.964Z,10.40
2019-05-30T01:29:55.900Z,10.30
2019-05-30T01:35:00.144Z,10.50
2019-05-30T01:40:04.375Z,10.30
2019-05-30T01:45:09.526Z,10.40
2019-05-30T01:50:14.458Z,10.40
2019-05-30T01:55:18.526Z,10.20
2019-05-30T02:00:25.198Z,10.20
2019-05-30T02:05:28.796Z,10.30
2019-05-30T02:10:32.462Z,10.00
2019-05-30T02:15:37.433Z,10.10
2019-05-30T02:20:41.523Z,10.10
2019-05-30T02:25:45.184Z,10.20
2019-05-30T02:30:49.208Z,10.10
2019-05-30T02:35:53.028Z,9.80
2019-05-30T02:40:56.775Z,9.80
2019-05-30T02:46:00.962Z,9.80
2019-05-30T02:51:05.579Z,9.70
2019-05-30T02:56:10.248Z,9.80
2019-05-30T03:01:14.967Z,9.80
2019-05-30T03:06:18.736Z,9.70
2019-05-30T03:11:22.387Z,9.80
2019-05-30T03:16:26.130Z,9.80
2019-05-30T03:21:30.106Z,9.80
2019-05-30T03:26:33.824Z,9.70
2019-05-30T03:31:39.156Z,9.70
2019-05-30T03:36:42.870Z,9.60
2019-05-30T03:41:46.537Z,9.40
2019-05-30T03:46:56.228Z,9.40
2019-05-30T03:52:04.884Z,9.50
2019-05-30T03:57:19.472Z,9.30
2019-05-30T04:02:56.039Z,9.30
2019-05-30T04:07:49.818Z,9.40
2019-05-30T04:13:15.347Z,9.40
2019-05-30T04:18:20.148Z,9.20
2019-05-30T04:23:24.114Z,9.40
2019-05-30T04:28:27.703Z,9.40
2019-05-30T04:33:33.567Z,9.60
2019-05-30T04:38:36.918Z,9.70
2019-05-30T04:43:40.561Z,9.80
2019-05-30T04:48:44.247Z,10.00
2019-05-30T04:53:48.188Z,10.10
2019-05-30T04:58:51.843Z,10.30
2019-05-30T05:03:55.663Z,10.30
2019-05-30T05:08:59.312Z,10.30
2019-05-30T05:14:02.901Z,10.60
2019-05-30T05:19:06.917Z,10.70
2019-05-30T05:24:10.509Z,11.00
2019-05-30T05:29:14.214Z,11.30
2019-05-30T05:34:18.579Z,11.50
2019-05-30T05:39:22.361Z,11.90
2019-05-30T05:44:25.891Z,12.20
2019-05-30T05:49:29.564Z,12.50
2019-05-30T05:54:33.228Z,12.70
2019-05-30T05:59:36.899Z,13.00
2019-05-30T06:04:40.621Z,13.30
2019-05-30T06:09:44.208Z,13.40
2019-05-30T06:14:47.876Z,13.70
2019-05-30T06:19:51.925Z,13.80
2019-05-30T06:24:55.615Z,13.90
2019-05-30T06:29:59.281Z,14.20
2019-05-30T06:35:03.188Z,14.30
2019-05-30T06:40:07.413Z,14.20
2019-05-30T06:45:11.644Z,14.50
2019-05-30T06:50:15.307Z,14.60
2019-05-30T06:55:19.273Z,15.10
2019-05-30T07:00:26.458Z,15.40
2019-05-30T07:05:32.092Z,15.50
2019-05-30T07:10:35.528Z,15.80
2019-05-30T07:15:39.155Z,15.80
2019-05-30T07:20:42.880Z,16.20
2019-05-30T07:25:46.472Z,16.60
2019-05-30T07:30:50.064Z,16.70
2019-05-30T07:35:53.792Z,17.00
2019-05-30T07:40:59.339Z,17.30
2019-05-30T07:46:03.604Z,17.50
2019-05-30T07:51:07.608Z,17.60
2019-05-30T07:56:11.261Z,17.80
2019-05-30T08:01:15.291Z,18.00
2019-05-30T08:06:18.953Z,18.20
2019-05-30T08:11:22.673Z,18.50
2019-05-30T08:16:27.084Z,18.90
2019-05-30T08:21:32.724Z,18.90
2019-05-30T08:26:36.512Z,19.10
2019-05-30T08:31:40.256Z,19.40
2019-05-30T08:36:44.229Z,19.40
2019-05-30T08:41:47.821Z,19.70
2019-05-30T08:46:51.492Z,19.50
2019-05-30T08:51:55.068Z,20.00
2019-05-30T08:56:58.659Z,20.30
2019-05-30T09:02:02.314Z,20.70
2019-05-30T09:07:05.970Z,20.80
2019-05-30T09:12:09.633Z,20.40
2019-05-30T09:17:13.517Z,20.80
2019-05-30T09:22:17.195Z,21.20
2019-05-30T09:27:20.915Z,21.20
2019-05-30T09:32:25.021Z,21.50
2019-05-30T09:37:29.090Z,21.40
2019-05-30T09:42:33.169Z,21.80
2019-05-30T09:47:36.849Z,22.00
2019-05-30T09:52:41.751Z,22.50
2019-05-30T09:57:45.961Z,22.60
2019-05-30T10:02:50.511Z,22.50
2019-05-30T10:07:54.775Z,22.60
2019-05-30T10:12:58.812Z,22.70
2019-05-30T10:18:02.964Z,22.90
2019-05-30T10:23:06.652Z,23.00
2019-05-30T10:28:10.309Z,23.50
2019-05-30T10:33:14.845Z,23.00
2019-05-30T10:38:20.138Z,23.20
2019-05-30T10:43:24.332Z,23.30
2019-05-30T10:48:27.913Z,23.20
2019-05-30T10:53:31.668Z,23.00
2019-05-30T10:58:35.696Z,23.80
2019-05-30T11:03:39.348Z,24.10
2019-05-30T11:08:46.215Z,23.90
2019-05-30T11:13:51.117Z,24.10
2019-05-30T11:18:56.199Z,24.50
2019-05-30T11:24:00.289Z,24.80
2019-05-30T11:29:04.411Z,24.80
2019-05-30T11:34:08.004Z,25.10
2019-05-30T11:39:11.769Z,25.30
2019-05-30T11:44:15.481Z,25.60
2019-05-30T11:49:19.586Z,25.40
2019-05-30T11:54:23.322Z,25.60
2019-05-30T11:59:26.977Z,25.70
2019-05-30T12:04:30.628Z,25.90
2019-05-30T12:09:34.683Z,26.00
2019-05-30T12:14:38.751Z,26.20
2019-05-30T12:19:42.409Z,26.30
2019-05-30T12:24:46.525Z,26.20
2019-05-30T12:29:54.004Z,26.60
2019-05-30T12:34:58.416Z,25.20
2019-05-30T12:40:03.193Z,25.80
2019-05-30T12:45:09.060Z,26.00
2019-05-30T12:50:16.561Z,26.20
2019-05-30T12:55:19.016Z,25.60
2019-05-30T13:00:25.679Z,26.10
2019-05-30T13:05:29.711Z,26.20
2019-05-30T13:10:33.437Z,26.50
2019-05-30T13:15:37.093Z,26.20
2019-05-30T13:20:40.813Z,26.30
2019-05-30T13:25:44.482Z,25.80
2019-05-30T13:30:48.642Z,25.60
2019-05-30T13:35:52.252Z,26.10
2019-05-30T13:40:55.905Z,26.10
2019-05-30T13:46:00.159Z,26.30
2019-05-30T13:51:04.859Z,26.40
2019-05-30T13:56:09.740Z,26.60
2019-05-30T14:01:14.141Z,26.90
2019-05-30T14:06:18.268Z,26.80
2019-05-30T14:11:21.857Z,26.70
2019-05-30T14:16:25.513Z,26.50
2019-05-30T14:21:30.732Z,26.40
2019-05-30T14:26:43.482Z,26.40
2019-05-30T14:31:47.368Z,26.10
2019-05-30T14:36:50.952Z,26.30
2019-05-30T14:41:54.806Z,25.70
2019-05-30T14:46:58.466Z,25.70
2019-05-30T14:52:02.462Z,25.70
2019-05-30T14:57:06.816Z,26.40
2019-05-30T15:02:11.295Z,26.40
2019-05-30T15:07:15.631Z,26.80
2019-05-30T15:12:19.352Z,26.60
2019-05-30T15:17:22.952Z,26.20
2019-05-30T15:22:26.857Z,26.50
2019-05-30T15:27:30.456Z,25.40
2019-05-30T15:32:34.308Z,25.40
2019-05-30T15:37:40.805Z,25.30
2019-05-30T15:42:43.721Z,25.10
2019-05-30T15:47:47.394Z,24.90
2019-05-30T15:52:51.049Z,24.90
2019-05-30T15:57:55.138Z,25.00
2019-05-30T16:02:58.794Z,25.00
2019-05-30T16:08:02.620Z,25.00
2019-05-30T16:13:06.225Z,24.40
2019-05-30T16:18:11.554Z,24.60
2019-05-30T16:23:16.578Z,24.50
2019-05-30T16:28:20.339Z,24.00
2019-05-30T16:33:23.909Z,23.70
2019-05-30T16:38:27.589Z,23.40
2019-05-30T16:43:31.200Z,23.50
2019-05-30T16:48:35.168Z,23.60
2019-05-30T16:53:38.807Z,23.70
2019-05-30T16:58:42.845Z,23.60
2019-05-30T17:03:46.566Z,23.50
2019-05-30T17:08:51.387Z,23.30
2019-05-30T17:13:55.042Z,23.10
2019-05-30T17:18:58.727Z,23.20
2019-05-30T17:24:02.674Z,22.90
2019-05-30T17:29:06.333Z,23.00
2019-05-30T17:34:10.430Z,22.90
2019-05-30T17:39:14.485Z,22.70
2019-05-30T17:44:19.075Z,22.50
2019-05-30T17:49:23.702Z,22.40
2019-05-30T17:54:28.085Z,22.30
2019-05-30T17:59:31.779Z,22.20
2019-05-30T18:04:35.429Z,22.10
2019-05-30T18:09:39.010Z,22.00
2019-05-30T18:14:42.676Z,22.00
2019-05-30T18:19:46.334Z,21.90
2019-05-30T18:24:49.909Z,21.90
2019-05-30T18:29:53.488Z,21.70
2019-05-30T18:34:57.567Z,21.40
2019-05-30T18:40:01.314Z,20.80
2019-05-30T18:45:07.783Z,20.60
2019-05-30T18:50:13.346Z,20.50
2019-05-30T18:55:17.371Z,20.40
2019-05-30T19:00:21.652Z,20.10
2019-05-30T19:05:26.540Z,19.80
2019-05-30T19:10:30.475Z,19.60
2019-05-30T19:15:34.374Z,19.40
2019-05-30T19:20:38.228Z,19.30
2019-05-30T19:25:42.393Z,19.20
2019-05-30T19:30:45.971Z,19.20
2019-05-30T19:35:49.851Z,19.00
2019-05-30T19:40:54.059Z,18.90
2019-05-30T19:45:57.745Z,18.70
2019-05-30T19:51:01.492Z,18.60
2019-05-30T19:56:06.268Z,18.50
2019-05-30T20:01:09.937Z,18.50
2019-05-30T20:06:13.688Z,18.50
2019-05-30T20:11:17.470Z,18.40
2019-05-30T20:16:21.176Z,18.50
2019-05-30T20:21:24.861Z,18.40
2019-05-30T20:26:28.836Z,18.30
2019-05-30T20:31:33.375Z,18.40
2019-05-30T20:36:38.474Z,18.50
2019-05-30T20:41:43.199Z,18.40
2019-05-30T20:46:47.354Z,18.30
2019-05-30T20:51:58.308Z,17.90
2019-05-30T20:57:02.456Z,17.80
2019-05-30T21:02:06.116Z,17.50
2019-05-30T21:07:10.941Z,17.60
2019-05-30T21:12:16.640Z,17.60
2019-05-30T21:17:22.076Z,17.60
2019-05-30T21:22:25.668Z,17.70
2019-05-30T21:27:29.584Z,17.70
2019-05-30T21:32:33.341Z,17.60
2019-05-30T21:37:37.672Z,17.70
2019-05-30T21:42:59.404Z,17.70
2019-05-30T21:47:47.384Z,17.60
2019-05-30T21:52:50.971Z,17.60
2019-05-30T21:57:54.556Z,17.60
2019-05-30T22:02:58.150Z,17.60
2019-05-30T22:08:01.727Z,17.40
2019-05-30T22:13:09.608Z,17.00
2019-05-30T22:18:10.649Z,17.10
2019-05-30T22:23:14.233Z,17.10
2019-05-30T22:28:17.964Z,17.10
2019-05-30T22:33:21.707Z,17.10
2019-05-30T22:38:25.287Z,17.10
2019-05-30T22:43:28.937Z,17.20
2019-05-30T22:48:32.903Z,17.20
2019-05-30T22:53:36.561Z,16.90
2019-05-30T22:58:40.549Z,17.00
2019-05-30T23:03:45.027Z,16.90
2019-05-30T23:08:48.827Z,16.90
2019-05-30T23:13:52.588Z,16.90
2019-05-30T23:18:56.851Z,16.90
2019-05-30T23:24:00.660Z,16.90
2019-05-30T23:29:04.749Z,16.70
2019-05-30T23:34:08.404Z,16.60
2019-05-30T23:39:12.080Z,16.60
2019-05-30T23:44:15.735Z,16.60
2019-05-30T23:49:19.453Z,16.50
2019-05-30T23:54:23.436Z,16.50
2019-05-30T23:59:27.515Z,16.50
